sensor_id;sensor_type;location;lat;lon;timestamp;temperature;humidity
75683;HTU21D;64295;44.772;39.872;2023-08-24T00:01:17;19.21;53.81
75683;HTU21D;64295;44.772;39.872;2023-08-24T00:03:46;19.14;53.97
75683;HTU21D;64295;44.772;39.872;2023-08-24T00:06:13;19.18;53.88
75683;HTU21D;64295;44.772;39.872;2023-08-24T00:08:39;19.15;53.94
75683;HTU21D;64295;44.772;39.872;2023-08-24T00:11:05;19.15;53.97
75683;HTU21D;64295;44.772;39.872;2023-08-24T00:13:32;19.16;53.94
75683;HTU21D;64295;44.772;39.872;2023-08-24T00:15:58;19.11;54.05
75683;HTU21D;64295;44.772;39.872;2023-08-24T00:18:24;19.13;54.02
75683;HTU21D;64295;44.772;39.872;2023-08-24T00:20:50;19.15;53.99
75683;HTU21D;64295;44.772;39.872;2023-08-24T00:23:17;19.13;54.04
75683;HTU21D;64295;44.772;39.872;2023-08-24T00:25:44;19.03;54.23
75683;HTU21D;64295;44.772;39.872;2023-08-24T00:28:10;18.99;54.30
75683;HTU21D;64295;44.772;39.872;2023-08-24T00:30:36;18.92;54.45
75683;HTU21D;64295;44.772;39.872;2023-08-24T00:33:03;18.88;54.56
75683;HTU21D;64295;44.772;39.872;2023-08-24T00:35:30;18.83;54.62
75683;HTU21D;64295;44.772;39.872;2023-08-24T00:37:56;18.80;54.68
75683;HTU21D;64295;44.772;39.872;2023-08-24T00:40:23;18.76;54.74
75683;HTU21D;64295;44.772;39.872;2023-08-24T00:42:50;18.72;54.81
75683;HTU21D;64295;44.772;39.872;2023-08-24T00:45:17;18.77;54.72
75683;HTU21D;64295;44.772;39.872;2023-08-24T00:47:45;18.74;54.72
75683;HTU21D;64295;44.772;39.872;2023-08-24T00:50:12;18.72;54.76
75683;HTU21D;64295;44.772;39.872;2023-08-24T00:52:41;18.71;54.73
75683;HTU21D;64295;44.772;39.872;2023-08-24T00:55:08;18.70;54.74
75683;HTU21D;64295;44.772;39.872;2023-08-24T00:57:36;18.68;54.79
75683;HTU21D;64295;44.772;39.872;2023-08-24T01:00:04;18.70;54.82
75683;HTU21D;64295;44.772;39.872;2023-08-24T01:02:37;18.74;54.70
75683;HTU21D;64295;44.772;39.872;2023-08-24T01:05:04;18.73;54.74
75683;HTU21D;64295;44.772;39.872;2023-08-24T01:07:31;18.81;54.65
75683;HTU21D;64295;44.772;39.872;2023-08-24T01:09:58;18.91;54.49
75683;HTU21D;64295;44.772;39.872;2023-08-24T01:15:32;19.00;54.40
75683;HTU21D;64295;44.772;39.872;2023-08-24T01:18:05;19.02;54.36
75683;HTU21D;64295;44.772;39.872;2023-08-24T01:20:35;18.97;54.45
75683;HTU21D;64295;44.772;39.872;2023-08-24T01:23:07;18.95;54.49
75683;HTU21D;64295;44.772;39.872;2023-08-24T01:28:01;18.65;55.06
75683;HTU21D;64295;44.772;39.872;2023-08-24T01:30:29;18.64;55.08
75683;HTU21D;64295;44.772;39.872;2023-08-24T01:32:56;18.70;54.96
75683;HTU21D;64295;44.772;39.872;2023-08-24T01:35:22;18.74;54.88
75683;HTU21D;64295;44.772;39.872;2023-08-24T01:37:50;18.84;54.73
75683;HTU21D;64295;44.772;39.872;2023-08-24T01:40:48;18.93;54.63
75683;HTU21D;64295;44.772;39.872;2023-08-24T01:43:18;18.92;54.56
75683;HTU21D;64295;44.772;39.872;2023-08-24T01:45:47;18.81;54.78
75683;HTU21D;64295;44.772;39.872;2023-08-24T01:48:13;18.74;54.94
75683;HTU21D;64295;44.772;39.872;2023-08-24T01:50:40;18.73;54.96
75683;HTU21D;64295;44.772;39.872;2023-08-24T01:53:07;18.76;54.92
75683;HTU21D;64295;44.772;39.872;2023-08-24T01:55:33;18.81;54.85
75683;HTU21D;64295;44.772;39.872;2023-08-24T01:58:00;18.80;54.84
75683;HTU21D;64295;44.772;39.872;2023-08-24T02:00:25;18.73;54.99
75683;HTU21D;64295;44.772;39.872;2023-08-24T02:02:52;18.68;55.08
75683;HTU21D;64295;44.772;39.872;2023-08-24T02:05:18;18.66;55.15
75683;HTU21D;64295;44.772;39.872;2023-08-24T02:07:50;18.72;55.04
75683;HTU21D;64295;44.772;39.872;2023-08-24T02:10:16;18.77;54.93
75683;HTU21D;64295;44.772;39.872;2023-08-24T02:12:42;18.71;55.03
75683;HTU21D;64295;44.772;39.872;2023-08-24T02:15:08;18.66;55.16
75683;HTU21D;64295;44.772;39.872;2023-08-24T02:17:36;18.55;55.33
75683;HTU21D;64295;44.772;39.872;2023-08-24T02:20:02;18.50;55.45
75683;HTU21D;64295;44.772;39.872;2023-08-24T02:22:29;18.53;55.39
75683;HTU21D;64295;44.772;39.872;2023-08-24T02:24:56;18.54;55.32
75683;HTU21D;64295;44.772;39.872;2023-08-24T02:27:22;18.53;55.34
75683;HTU21D;64295;44.772;39.872;2023-08-24T02:29:50;18.53;55.34
75683;HTU21D;64295;44.772;39.872;2023-08-24T02:32:16;18.48;55.43
75683;HTU21D;64295;44.772;39.872;2023-08-24T02:34:42;18.36;55.60
75683;HTU21D;64295;44.772;39.872;2023-08-24T02:37:08;18.34;55.69
75683;HTU21D;64295;44.772;39.872;2023-08-24T02:39:34;18.32;55.71
75683;HTU21D;64295;44.772;39.872;2023-08-24T02:42:00;18.35;55.61
75683;HTU21D;64295;44.772;39.872;2023-08-24T02:44:26;18.40;55.49
75683;HTU21D;64295;44.772;39.872;2023-08-24T02:46:54;18.43;55.47
75683;HTU21D;64295;44.772;39.872;2023-08-24T02:49:20;18.48;55.37
75683;HTU21D;64295;44.772;39.872;2023-08-24T02:51:46;18.54;55.28
75683;HTU21D;64295;44.772;39.872;2023-08-24T02:54:12;18.59;55.21
75683;HTU21D;64295;44.772;39.872;2023-08-24T02:56:38;18.67;55.13
75683;HTU21D;64295;44.772;39.872;2023-08-24T02:59:04;18.73;55.04
75683;HTU21D;64295;44.772;39.872;2023-08-24T03:01:30;18.78;55.00
75683;HTU21D;64295;44.772;39.872;2023-08-24T03:03:56;18.82;54.96
75683;HTU21D;64295;44.772;39.872;2023-08-24T03:06:24;18.85;54.95
75683;HTU21D;64295;44.772;39.872;2023-08-24T03:08:50;18.86;54.98
75683;HTU21D;64295;44.772;39.872;2023-08-24T03:11:16;18.91;54.97
75683;HTU21D;64295;44.772;39.872;2023-08-24T03:13:42;18.94;54.95
75683;HTU21D;64295;44.772;39.872;2023-08-24T03:16:08;18.98;54.90
75683;HTU21D;64295;44.772;39.872;2023-08-24T03:18:36;19.03;54.84
75683;HTU21D;64295;44.772;39.872;2023-08-24T03:21:03;19.10;54.78
75683;HTU21D;64295;44.772;39.872;2023-08-24T03:23:32;19.07;54.87
75683;HTU21D;64295;44.772;39.872;2023-08-24T03:25:59;19.10;54.88
75683;HTU21D;64295;44.772;39.872;2023-08-24T03:28:25;19.20;54.78
75683;HTU21D;64295;44.772;39.872;2023-08-24T03:30:52;19.24;54.70
75683;HTU21D;64295;44.772;39.872;2023-08-24T03:33:20;19.28;54.68
75683;HTU21D;64295;44.772;39.872;2023-08-24T03:35:46;19.33;54.65
75683;HTU21D;64295;44.772;39.872;2023-08-24T03:38:12;19.36;54.62
75683;HTU21D;64295;44.772;39.872;2023-08-24T03:40:38;19.37;54.66
75683;HTU21D;64295;44.772;39.872;2023-08-24T03:43:04;19.44;54.62
75683;HTU21D;64295;44.772;39.872;2023-08-24T03:45:30;19.54;54.46
75683;HTU21D;64295;44.772;39.872;2023-08-24T03:47:56;19.57;54.45
75683;HTU21D;64295;44.772;39.872;2023-08-24T03:50:22;19.63;54.42
75683;HTU21D;64295;44.772;39.872;2023-08-24T03:52:50;19.68;54.39
75683;HTU21D;64295;44.772;39.872;2023-08-24T03:55:16;19.73;54.33
75683;HTU21D;64295;44.772;39.872;2023-08-24T03:57:43;19.80;54.28
75683;HTU21D;64295;44.772;39.872;2023-08-24T04:00:09;19.88;54.26
75683;HTU21D;64295;44.772;39.872;2023-08-24T04:02:43;19.91;54.24
75683;HTU21D;64295;44.772;39.872;2023-08-24T04:05:15;19.94;54.22
75683;HTU21D;64295;44.772;39.872;2023-08-24T04:07:41;19.87;54.38
75683;HTU21D;64295;44.772;39.872;2023-08-24T04:10:08;19.85;54.51
75683;HTU21D;64295;44.772;39.872;2023-08-24T04:12:35;19.95;54.36
75683;HTU21D;64295;44.772;39.872;2023-08-24T04:15:01;20.00;54.27
75683;HTU21D;64295;44.772;39.872;2023-08-24T04:17:27;20.02;54.32
75683;HTU21D;64295;44.772;39.872;2023-08-24T04:19:53;20.10;54.24
75683;HTU21D;64295;44.772;39.872;2023-08-24T04:22:19;20.20;54.11
75683;HTU21D;64295;44.772;39.872;2023-08-24T04:24:45;20.28;54.01
75683;HTU21D;64295;44.772;39.872;2023-08-24T04:27:11;20.35;53.96
75683;HTU21D;64295;44.772;39.872;2023-08-24T04:29:37;20.42;53.91
75683;HTU21D;64295;44.772;39.872;2023-08-24T04:32:03;20.55;53.77
75683;HTU21D;64295;44.772;39.872;2023-08-24T04:34:30;20.68;53.59
75683;HTU21D;64295;44.772;39.872;2023-08-24T04:36:56;20.83;53.44
75683;HTU21D;64295;44.772;39.872;2023-08-24T04:39:22;20.95;53.31
75683;HTU21D;64295;44.772;39.872;2023-08-24T04:41:48;21.07;53.24
75683;HTU21D;64295;44.772;39.872;2023-08-24T04:44:17;21.18;53.14
75683;HTU21D;64295;44.772;39.872;2023-08-24T04:46:43;21.21;53.20
75683;HTU21D;64295;44.772;39.872;2023-08-24T04:49:09;21.24;53.26
75683;HTU21D;64295;44.772;39.872;2023-08-24T04:51:36;21.28;53.31
75683;HTU21D;64295;44.772;39.872;2023-08-24T04:54:04;21.27;53.43
75683;HTU21D;64295;44.772;39.872;2023-08-24T04:56:30;21.35;53.35
75683;HTU21D;64295;44.772;39.872;2023-08-24T04:58:57;21.40;53.34
75683;HTU21D;64295;44.772;39.872;2023-08-24T05:01:24;21.49;53.29
75683;HTU21D;64295;44.772;39.872;2023-08-24T05:03:53;21.58;53.23
75683;HTU21D;64295;44.772;39.872;2023-08-24T05:06:20;21.65;53.17
75683;HTU21D;64295;44.772;39.872;2023-08-24T05:08:46;21.72;53.17
75683;HTU21D;64295;44.772;39.872;2023-08-24T05:11:13;21.80;53.09
75683;HTU21D;64295;44.772;39.872;2023-08-24T05:13:40;21.91;52.99
75683;HTU21D;64295;44.772;39.872;2023-08-24T05:16:08;22.05;52.83
75683;HTU21D;64295;44.772;39.872;2023-08-24T05:18:37;22.18;52.74
75683;HTU21D;64295;44.772;39.872;2023-08-24T05:21:03;22.28;52.60
75683;HTU21D;64295;44.772;39.872;2023-08-24T05:23:30;22.40;52.55
75683;HTU21D;64295;44.772;39.872;2023-08-24T05:25:57;22.54;52.41
75683;HTU21D;64295;44.772;39.872;2023-08-24T05:28:28;22.62;52.40
75683;HTU21D;64295;44.772;39.872;2023-08-24T05:30:55;22.68;52.36
75683;HTU21D;64295;44.772;39.872;2023-08-24T05:33:21;22.80;52.29
75683;HTU21D;64295;44.772;39.872;2023-08-24T05:35:49;22.93;52.17
75683;HTU21D;64295;44.772;39.872;2023-08-24T05:38:15;23.12;51.96
75683;HTU21D;64295;44.772;39.872;2023-08-24T05:40:47;23.28;51.81
75683;HTU21D;64295;44.772;39.872;2023-08-24T05:43:13;23.40;51.69
75683;HTU21D;64295;44.772;39.872;2023-08-24T05:45:40;23.45;51.71
75683;HTU21D;64295;44.772;39.872;2023-08-24T05:48:06;23.44;51.86
75683;HTU21D;64295;44.772;39.872;2023-08-24T05:50:33;23.51;51.84
75683;HTU21D;64295;44.772;39.872;2023-08-24T05:52:59;23.62;51.75
75683;HTU21D;64295;44.772;39.872;2023-08-24T05:55:25;23.79;51.57
75683;HTU21D;64295;44.772;39.872;2023-08-24T05:57:51;23.94;51.40
75683;HTU21D;64295;44.772;39.872;2023-08-24T06:00:17;24.03;51.33
75683;HTU21D;64295;44.772;39.872;2023-08-24T06:02:43;24.12;51.33
75683;HTU21D;64295;44.772;39.872;2023-08-24T06:05:09;24.30;51.12
75683;HTU21D;64295;44.772;39.872;2023-08-24T06:07:36;24.46;50.97
75683;HTU21D;64295;44.772;39.872;2023-08-24T06:10:03;24.62;50.85
75683;HTU21D;64295;44.772;39.872;2023-08-24T06:12:28;24.69;50.82
75683;HTU21D;64295;44.772;39.872;2023-08-24T06:14:54;24.71;50.94
75683;HTU21D;64295;44.772;39.872;2023-08-24T06:17:20;24.83;50.88
75683;HTU21D;64295;44.772;39.872;2023-08-24T06:19:46;24.94;50.77
75683;HTU21D;64295;44.772;39.872;2023-08-24T06:22:12;25.03;50.72
75683;HTU21D;64295;44.772;39.872;2023-08-24T06:24:38;25.16;50.66
75683;HTU21D;64295;44.772;39.872;2023-08-24T06:27:04;25.31;50.53
75683;HTU21D;64295;44.772;39.872;2023-08-24T06:29:30;25.48;50.40
75683;HTU21D;64295;44.772;39.872;2023-08-24T06:31:56;25.66;50.21
75683;HTU21D;64295;44.772;39.872;2023-08-24T06:34:22;25.84;50.07
75683;HTU21D;64295;44.772;39.872;2023-08-24T06:36:50;26.01;49.91
75683;HTU21D;64295;44.772;39.872;2023-08-24T06:39:16;25.94;50.06
75683;HTU21D;64295;44.772;39.872;2023-08-24T06:41:42;25.84;50.27
75683;HTU21D;64295;44.772;39.872;2023-08-24T06:44:08;25.80;50.37
75683;HTU21D;64295;44.772;39.872;2023-08-24T06:46:34;25.92;50.23
75683;HTU21D;64295;44.772;39.872;2023-08-24T06:49:00;26.04;50.02
75683;HTU21D;64295;44.772;39.872;2023-08-24T06:51:26;26.15;49.90
75683;HTU21D;64295;44.772;39.872;2023-08-24T06:53:52;26.31;49.71
75683;HTU21D;64295;44.772;39.872;2023-08-24T06:56:18;26.43;49.54
75683;HTU21D;64295;44.772;39.872;2023-08-24T06:58:45;26.52;49.44
75683;HTU21D;64295;44.772;39.872;2023-08-24T07:01:11;26.54;49.52
75683;HTU21D;64295;44.772;39.872;2023-08-24T07:03:37;26.73;49.25
75683;HTU21D;64295;44.772;39.872;2023-08-24T07:06:06;26.71;49.31
75683;HTU21D;64295;44.772;39.872;2023-08-24T07:08:34;26.84;49.19
75683;HTU21D;64295;44.772;39.872;2023-08-24T07:11:02;27.00;48.99
75683;HTU21D;64295;44.772;39.872;2023-08-24T07:13:35;27.10;48.82
75683;HTU21D;64295;44.772;39.872;2023-08-24T07:16:10;27.00;48.99
75683;HTU21D;64295;44.772;39.872;2023-08-24T07:18:36;27.02;49.08
75683;HTU21D;64295;44.772;39.872;2023-08-24T07:21:02;27.22;48.82
75683;HTU21D;64295;44.772;39.872;2023-08-24T07:23:28;27.49;48.50
75683;HTU21D;64295;44.772;39.872;2023-08-24T07:25:54;27.82;48.05
75683;HTU21D;64295;44.772;39.872;2023-08-24T07:28:45;28.10;47.76
75683;HTU21D;64295;44.772;39.872;2023-08-24T07:31:11;28.30;47.59
75683;HTU21D;64295;44.772;39.872;2023-08-24T07:33:40;28.50;47.44
75683;HTU21D;64295;44.772;39.872;2023-08-24T07:36:08;28.68;47.31
75683;HTU21D;64295;44.772;39.872;2023-08-24T07:38:34;28.83;47.25
75683;HTU21D;64295;44.772;39.872;2023-08-24T07:41:00;29.02;47.06
75683;HTU21D;64295;44.772;39.872;2023-08-24T07:43:26;29.20;46.97
75683;HTU21D;64295;44.772;39.872;2023-08-24T07:45:52;29.33;46.86
75683;HTU21D;64295;44.772;39.872;2023-08-24T07:48:18;29.38;46.91
75683;HTU21D;64295;44.772;39.872;2023-08-24T07:50:44;29.50;46.83
75683;HTU21D;64295;44.772;39.872;2023-08-24T07:53:12;29.62;46.61
75683;HTU21D;64295;44.772;39.872;2023-08-24T07:55:42;29.61;46.72
75683;HTU21D;64295;44.772;39.872;2023-08-24T07:58:13;29.80;46.54
75683;HTU21D;64295;44.772;39.872;2023-08-24T08:00:48;30.00;46.38
75683;HTU21D;64295;44.772;39.872;2023-08-24T08:03:22;30.21;46.19
75683;HTU21D;64295;44.772;39.872;2023-08-24T08:05:48;30.33;45.96
75683;HTU21D;64295;44.772;39.872;2023-08-24T08:08:19;30.26;46.10
75683;HTU21D;64295;44.772;39.872;2023-08-24T08:11:00;30.47;45.92
75683;HTU21D;64295;44.772;39.872;2023-08-24T08:13:31;30.64;45.67
75683;HTU21D;64295;44.772;39.872;2023-08-24T08:16:14;30.81;45.57
75683;HTU21D;64295;44.772;39.872;2023-08-24T08:18:48;30.96;45.39
75683;HTU21D;64295;44.772;39.872;2023-08-24T08:21:17;30.93;45.32
75683;HTU21D;64295;44.772;39.872;2023-08-24T08:23:46;30.63;45.47
75683;HTU21D;64295;44.772;39.872;2023-08-24T08:26:22;30.53;45.58
75683;HTU21D;64295;44.772;39.872;2023-08-24T08:28:58;30.62;45.35
75683;HTU21D;64295;44.772;39.872;2023-08-24T08:31:25;30.77;45.06
75683;HTU21D;64295;44.772;39.872;2023-08-24T08:33:58;30.96;44.72
75683;HTU21D;64295;44.772;39.872;2023-08-24T08:36:38;31.05;44.53
75683;HTU21D;64295;44.772;39.872;2023-08-24T08:39:11;31.26;44.16
75683;HTU21D;64295;44.772;39.872;2023-08-24T08:41:42;31.39;43.91
75683;HTU21D;64295;44.772;39.872;2023-08-24T08:44:18;31.38;43.82
75683;HTU21D;64295;44.772;39.872;2023-08-24T08:46:47;31.38;43.87
75683;HTU21D;64295;44.772;39.872;2023-08-24T08:49:23;31.49;43.67
75683;HTU21D;64295;44.772;39.872;2023-08-24T08:51:52;31.67;43.37
75683;HTU21D;64295;44.772;39.872;2023-08-24T08:54:23;31.79;43.11
75683;HTU21D;64295;44.772;39.872;2023-08-24T08:56:58;31.86;43.09
75683;HTU21D;64295;44.772;39.872;2023-08-24T08:59:38;31.96;42.81
75683;HTU21D;64295;44.772;39.872;2023-08-24T09:02:12;31.75;42.77
75683;HTU21D;64295;44.772;39.872;2023-08-24T09:04:39;31.51;43.05
75683;HTU21D;64295;44.772;39.872;2023-08-24T09:07:15;31.66;42.67
75683;HTU21D;64295;44.772;39.872;2023-08-24T09:09:42;31.61;42.45
75683;HTU21D;64295;44.772;39.872;2023-08-24T09:12:09;31.40;42.42
75683;HTU21D;64295;44.772;39.872;2023-08-24T09:14:39;31.52;42.15
75683;HTU21D;64295;44.772;39.872;2023-08-24T09:17:08;31.68;41.91
75683;HTU21D;64295;44.772;39.872;2023-08-24T09:19:44;31.88;41.57
75683;HTU21D;64295;44.772;39.872;2023-08-24T09:22:17;32.01;41.33
75683;HTU21D;64295;44.772;39.872;2023-08-24T09:24:48;32.04;41.16
75683;HTU21D;64295;44.772;39.872;2023-08-24T09:27:27;31.97;41.22
75683;HTU21D;64295;44.772;39.872;2023-08-24T09:29:53;32.15;40.94
75683;HTU21D;64295;44.772;39.872;2023-08-24T09:32:28;32.45;40.52
75683;HTU21D;64295;44.772;39.872;2023-08-24T09:35:08;32.52;40.36
75683;HTU21D;64295;44.772;39.872;2023-08-24T09:37:35;32.56;40.38
75683;HTU21D;64295;44.772;39.872;2023-08-24T09:40:06;32.71;40.21
75683;HTU21D;64295;44.772;39.872;2023-08-24T09:42:38;32.83;40.05
75683;HTU21D;64295;44.772;39.872;2023-08-24T09:45:06;33.00;39.85
75683;HTU21D;64295;44.772;39.872;2023-08-24T09:47:33;33.08;40.01
75683;HTU21D;64295;44.772;39.872;2023-08-24T09:49:59;33.13;39.94
75683;HTU21D;64295;44.772;39.872;2023-08-24T09:52:33;33.31;39.62
75683;HTU21D;64295;44.772;39.872;2023-08-24T09:55:06;33.50;39.39
75683;HTU21D;64295;44.772;39.872;2023-08-24T09:57:38;33.71;39.18
75683;HTU21D;64295;44.772;39.872;2023-08-24T10:00:08;33.68;39.01
75683;HTU21D;64295;44.772;39.872;2023-08-24T10:05:14;33.62;38.95
75683;HTU21D;64295;44.772;39.872;2023-08-24T10:07:53;33.53;38.95
75683;HTU21D;64295;44.772;39.872;2023-08-24T10:10:23;33.60;38.85
75683;HTU21D;64295;44.772;39.872;2023-08-24T10:12:52;33.70;38.65
75683;HTU21D;64295;44.772;39.872;2023-08-24T10:15:22;33.80;38.48
75683;HTU21D;64295;44.772;39.872;2023-08-24T10:17:50;33.78;38.49
75683;HTU21D;64295;44.772;39.872;2023-08-24T10:20:17;33.95;38.62
75683;HTU21D;64295;44.772;39.872;2023-08-24T10:22:45;33.90;38.33
75683;HTU21D;64295;44.772;39.872;2023-08-24T10:25:13;33.43;38.55
75683;HTU21D;64295;44.772;39.872;2023-08-24T10:27:42;33.34;38.58
75683;HTU21D;64295;44.772;39.872;2023-08-24T10:30:11;33.44;38.29
75683;HTU21D;64295;44.772;39.872;2023-08-24T10:32:37;33.50;38.53
75683;HTU21D;64295;44.772;39.872;2023-08-24T10:35:04;33.61;38.11
75683;HTU21D;64295;44.772;39.872;2023-08-24T10:37:30;33.48;38.19
75683;HTU21D;64295;44.772;39.872;2023-08-24T10:39:56;33.62;37.95
75683;HTU21D;64295;44.772;39.872;2023-08-24T10:42:22;33.87;37.54
75683;HTU21D;64295;44.772;39.872;2023-08-24T10:44:48;33.82;37.48
75683;HTU21D;64295;44.772;39.872;2023-08-24T10:47:22;33.57;37.76
75683;HTU21D;64295;44.772;39.872;2023-08-24T10:52:24;33.27;37.82
75683;HTU21D;64295;44.772;39.872;2023-08-24T10:54:52;33.23;37.77
75683;HTU21D;64295;44.772;39.872;2023-08-24T10:57:20;33.25;37.63
75683;HTU21D;64295;44.772;39.872;2023-08-24T11:00:08;33.19;37.41
75683;HTU21D;64295;44.772;39.872;2023-08-24T11:02:45;33.21;37.35
75683;HTU21D;64295;44.772;39.872;2023-08-24T11:05:19;33.21;37.24
75683;HTU21D;64295;44.772;39.872;2023-08-24T11:10:17;33.41;36.73
75683;HTU21D;64295;44.772;39.872;2023-08-24T11:13:04;32.92;36.69
75683;HTU21D;64295;44.772;39.872;2023-08-24T11:15:37;32.74;36.79
75683;HTU21D;64295;44.772;39.872;2023-08-24T11:18:30;32.64;36.81
75683;HTU21D;64295;44.772;39.872;2023-08-24T11:21:00;32.96;36.43
75683;HTU21D;64295;44.772;39.872;2023-08-24T11:23:27;33.20;36.09
75683;HTU21D;64295;44.772;39.872;2023-08-24T11:25:55;33.19;35.89
75683;HTU21D;64295;44.772;39.872;2023-08-24T11:28:29;32.97;36.13
75683;HTU21D;64295;44.772;39.872;2023-08-24T11:30:56;33.03;36.12
75683;HTU21D;64295;44.772;39.872;2023-08-24T11:33:31;33.20;35.91
75683;HTU21D;64295;44.772;39.872;2023-08-24T11:35:58;33.18;36.25
75683;HTU21D;64295;44.772;39.872;2023-08-24T11:38:24;33.30;36.14
75683;HTU21D;64295;44.772;39.872;2023-08-24T11:40:52;33.43;35.99
75683;HTU21D;64295;44.772;39.872;2023-08-24T11:43:26;33.57;35.73
75683;HTU21D;64295;44.772;39.872;2023-08-24T11:45:54;33.63;35.77
75683;HTU21D;64295;44.772;39.872;2023-08-24T11:48:27;33.74;35.66
75683;HTU21D;64295;44.772;39.872;2023-08-24T11:50:55;33.78;35.94
75683;HTU21D;64295;44.772;39.872;2023-08-24T11:53:25;33.87;35.67
75683;HTU21D;64295;44.772;39.872;2023-08-24T11:55:55;33.90;35.64
75683;HTU21D;64295;44.772;39.872;2023-08-24T11:58:20;34.03;35.36
75683;HTU21D;64295;44.772;39.872;2023-08-24T12:00:46;33.89;35.45
75683;HTU21D;64295;44.772;39.872;2023-08-24T12:03:13;33.83;35.45
75683;HTU21D;64295;44.772;39.872;2023-08-24T12:05:41;33.71;35.62
75683;HTU21D;64295;44.772;39.872;2023-08-24T12:08:11;33.77;35.39
75683;HTU21D;64295;44.772;39.872;2023-08-24T12:10:42;33.78;35.28
75683;HTU21D;64295;44.772;39.872;2023-08-24T12:13:08;33.80;35.23
75683;HTU21D;64295;44.772;39.872;2023-08-24T12:15:36;33.91;35.08
75683;HTU21D;64295;44.772;39.872;2023-08-24T12:18:12;34.01;34.92
75683;HTU21D;64295;44.772;39.872;2023-08-24T12:20:40;33.93;34.92
75683;HTU21D;64295;44.772;39.872;2023-08-24T12:23:09;33.95;34.85
75683;HTU21D;64295;44.772;39.872;2023-08-24T12:25:43;34.00;34.65
75683;HTU21D;64295;44.772;39.872;2023-08-24T12:28:12;33.89;34.80
75683;HTU21D;64295;44.772;39.872;2023-08-24T12:30:49;33.65;34.73
75683;HTU21D;64295;44.772;39.872;2023-08-24T12:33:28;33.53;34.73
75683;HTU21D;64295;44.772;39.872;2023-08-24T12:35:55;33.49;34.72
75683;HTU21D;64295;44.772;39.872;2023-08-24T12:38:25;33.63;34.42
75683;HTU21D;64295;44.772;39.872;2023-08-24T12:40:52;33.70;34.28
75683;HTU21D;64295;44.772;39.872;2023-08-24T12:43:18;33.81;34.10
75683;HTU21D;64295;44.772;39.872;2023-08-24T12:45:44;33.97;33.96
75683;HTU21D;64295;44.772;39.872;2023-08-24T12:48:10;34.03;33.84
75683;HTU21D;64295;44.772;39.872;2023-08-24T12:50:37;34.02;33.84
75683;HTU21D;64295;44.772;39.872;2023-08-24T12:53:03;34.09;33.77
75683;HTU21D;64295;44.772;39.872;2023-08-24T12:55:32;34.15;33.76
75683;HTU21D;64295;44.772;39.872;2023-08-24T12:57:59;34.21;33.67
75683;HTU21D;64295;44.772;39.872;2023-08-24T13:00:25;34.17;33.74
75683;HTU21D;64295;44.772;39.872;2023-08-24T13:02:52;34.16;33.83
75683;HTU21D;64295;44.772;39.872;2023-08-24T13:05:18;34.12;33.83
75683;HTU21D;64295;44.772;39.872;2023-08-24T13:07:44;34.14;33.75
75683;HTU21D;64295;44.772;39.872;2023-08-24T13:10:09;34.05;33.80
75683;HTU21D;64295;44.772;39.872;2023-08-24T13:12:36;33.93;33.70
75683;HTU21D;64295;44.772;39.872;2023-08-24T13:15:03;33.76;33.86
75683;HTU21D;64295;44.772;39.872;2023-08-24T13:17:30;33.83;33.70
75683;HTU21D;64295;44.772;39.872;2023-08-24T13:19:56;33.89;33.65
75683;HTU21D;64295;44.772;39.872;2023-08-24T13:22:22;34.01;33.51
75683;HTU21D;64295;44.772;39.872;2023-08-24T13:24:48;34.10;33.42
75683;HTU21D;64295;44.772;39.872;2023-08-24T13:27:14;34.07;33.38
75683;HTU21D;64295;44.772;39.872;2023-08-24T13:29:40;33.90;33.41
75683;HTU21D;64295;44.772;39.872;2023-08-24T13:32:06;33.72;33.56
75683;HTU21D;64295;44.772;39.872;2023-08-24T13:34:33;33.58;33.67
75683;HTU21D;64295;44.772;39.872;2023-08-24T13:36:59;33.60;33.59
75683;HTU21D;64295;44.772;39.872;2023-08-24T13:39:29;33.58;33.44
75683;HTU21D;64295;44.772;39.872;2023-08-24T13:41:59;33.50;33.50
75683;HTU21D;64295;44.772;39.872;2023-08-24T13:44:25;33.48;33.48
75683;HTU21D;64295;44.772;39.872;2023-08-24T13:46:51;33.53;33.41
75683;HTU21D;64295;44.772;39.872;2023-08-24T13:49:18;33.61;33.18
75683;HTU21D;64295;44.772;39.872;2023-08-24T13:51:45;33.45;33.33
75683;HTU21D;64295;44.772;39.872;2023-08-24T13:54:15;33.52;33.18
75683;HTU21D;64295;44.772;39.872;2023-08-24T13:56:45;33.51;33.18
75683;HTU21D;64295;44.772;39.872;2023-08-24T13:59:12;33.50;33.16
75683;HTU21D;64295;44.772;39.872;2023-08-24T14:01:38;33.48;33.15
75683;HTU21D;64295;44.772;39.872;2023-08-24T14:04:04;33.48;33.12
75683;HTU21D;64295;44.772;39.872;2023-08-24T14:06:31;33.43;33.15
75683;HTU21D;64295;44.772;39.872;2023-08-24T14:08:59;33.44;33.15
75683;HTU21D;64295;44.772;39.872;2023-08-24T14:11:25;33.33;33.14
75683;HTU21D;64295;44.772;39.872;2023-08-24T14:13:50;33.19;33.26
75683;HTU21D;64295;44.772;39.872;2023-08-24T14:16:19;33.16;33.23
75683;HTU21D;64295;44.772;39.872;2023-08-24T14:18:46;33.09;33.20
75683;HTU21D;64295;44.772;39.872;2023-08-24T14:21:12;33.05;33.18
75683;HTU21D;64295;44.772;39.872;2023-08-24T14:23:39;33.06;33.07
75683;HTU21D;64295;44.772;39.872;2023-08-24T14:26:06;33.01;33.04
75683;HTU21D;64295;44.772;39.872;2023-08-24T14:28:51;33.00;33.00
75683;HTU21D;64295;44.772;39.872;2023-08-24T14:31:23;33.01;32.97
75683;HTU21D;64295;44.772;39.872;2023-08-24T14:33:50;32.91;33.00
75683;HTU21D;64295;44.772;39.872;2023-08-24T14:36:17;32.86;32.97
75683;HTU21D;64295;44.772;39.872;2023-08-24T14:38:43;32.77;32.96
75683;HTU21D;64295;44.772;39.872;2023-08-24T14:41:10;32.68;32.99
75683;HTU21D;64295;44.772;39.872;2023-08-24T14:43:37;32.64;32.97
75683;HTU21D;64295;44.772;39.872;2023-08-24T14:46:03;32.70;32.85
75683;HTU21D;64295;44.772;39.872;2023-08-24T14:48:29;32.76;32.70
75683;HTU21D;64295;44.772;39.872;2023-08-24T14:50:56;32.62;32.62
75683;HTU21D;64295;44.772;39.872;2023-08-24T14:53:25;32.40;32.84
75683;HTU21D;64295;44.772;39.872;2023-08-24T14:55:53;32.32;32.84
75683;HTU21D;64295;44.772;39.872;2023-08-24T14:58:23;32.27;32.82
75683;HTU21D;64295;44.772;39.872;2023-08-24T15:00:50;32.30;32.74
75683;HTU21D;64295;44.772;39.872;2023-08-24T15:03:17;32.26;32.69
75683;HTU21D;64295;44.772;39.872;2023-08-24T15:05:46;32.12;32.79
75683;HTU21D;64295;44.772;39.872;2023-08-24T15:08:13;31.97;33.13
75683;HTU21D;64295;44.772;39.872;2023-08-24T15:10:39;31.87;33.13
75683;HTU21D;64295;44.772;39.872;2023-08-24T15:13:05;31.81;33.12
75683;HTU21D;64295;44.772;39.872;2023-08-24T15:15:34;31.72;33.12
75683;HTU21D;64295;44.772;39.872;2023-08-24T15:18:00;31.69;33.12
75683;HTU21D;64295;44.772;39.872;2023-08-24T15:20:26;31.59;33.20
75683;HTU21D;64295;44.772;39.872;2023-08-24T15:22:52;31.42;33.38